Fairbanks, AK

6:15 PM AKDT on September 18, 2014 (GMT -0800)
Fairbanks International | Change Station
CLOSE
Current Station
Airport
Location: Fairbanks,
Elevation: 433 ft
Nearby Weather Stations

Elev 433 ft 64.80 °N, 147.88 °W | Updated 22 minutes ago

Mostly Cloudy
Mostly Cloudy
63 °F
Feels Like 63 °F
N
0
Wind Variable Wind from North

Today
High -- | Low -- °F
--% Chance of Precip.
Yesterday
High -- | Low -- °F
Precip. -- in
7:22 AM 8:06 PM
Waning Crescent, 23% visible
Pressure 29.04 in
Visibility 10.0 miles
Clouds Few 8000 ft
Scattered Clouds 10000 ft
Mostly Cloudy 20000 ft
Dew Point 37 °F
Humidity 38%
Rainfall 0.00 in
Snow Depth 0 in , 0 in , 0 in
UV 0 out of 12
Pollen Not available.
Air Quality Not available.
Flu Activity Not available.
METAR PAFA 190153Z 00000KT 10SM FEW080 SCT100 BKN200 17/03 A2903 RMK AO2 SLP834 ACSL DSNT S T01720028

More Conditions Fewer Conditions

Pressure 29.04 in
Visibility 10.0 miles
Clouds Few 8000 ft
Scattered Clouds 10000 ft
Mostly Cloudy 20000 ft
Dew Point 37 °F
Humidity 38%
Rainfall 0.00 in
Snow Depth 0 in , 0 in , 0 in
UV 0 out of 12
Pollen Not available.
Air Quality Not available.
Flu Activity Not available.
METAR PAFA 190153Z 00000KT 10SM FEW080 SCT100 BKN200 17/03 A2903 RMK AO2 SLP834 ACSL DSNT S T01720028

More Conditions Fewer Conditions

10-Day Weather Forecast

Almanac

Astronomy

Sep. 18, 2014 Rise Set
Actual Time 7:22 AM AKDT 8:06 PM AKDT
Civil Twilight 6:33 AM AKDT 8:55 PM AKDT
Nautical Twilight 5:30 AM AKDT 9:57 PM AKDT
Astronomical Twilight 4:15 AM AKDT 11:10 PM AKDT
Moon 12:53 AM AKDT (9/18) 6:22 PM AKDT (9/18)
Length of Visible Light 14h 22m
Length of Day
12h 43m
Tomorrow will be 6m 37s shorter.
Waning Crescent, 23% of the Moon is Illuminated
Today
Waning Crescent
Sep 24
New
Oct 1
First Quarter
Oct 8
Full
Oct 15
Last Quarter

Today's Extremes

State Highs State Lows

Community

WunderPhotos

Upload Photos

1,754,537 photos uploaded!

Nearby

Snow Depth

Station Depth Elevation
Eagle Summit 0 in 3650 ft
Coldfoot 0 in 1040 ft
Upper Tsaina River 0 in 1750 ft
Upper Chena 1 in 2850 ft
Susitna Valley High 2 in 375 ft

Earthquake Activity

City Distance Mag. Time & Date
No recent earthquake activity has been reported nearby.
Minimum magnitude displayed is 2.5.

Coastal Water Temperatures

Place Temperature
No Stations Reporting

Nearby Weather Stations